Time;durP1;ratioP1;P1;durP2;ratioP2;P2;SDS_P1;SDS_P2;PMS_P1;PMS_P2;Temp;Humidity;BMP_temperature;BMP_pressure;BME280_temperature;BME280_humidity;BME280_pressure;Samples;Min_cycle;Max_cycle;Signal;HPM_P1;HPM_P2
2022/06/16 00:00:32;;;;;;;1.70;1.60;;;21.80;52.30;;;;;;5056735;28;20120;-59
2022/06/16 00:02:58;;;;;;;1.92;1.80;;;21.80;52.30;;;;;;5056111;28;20075;-58
2022/06/16 00:05:27;;;;;;;2.10;1.92;;;21.80;52.40;;;;;;5058250;28;20068;-60
2022/06/16 00:07:53;;;;;;;2.58;1.70;;;21.80;52.40;;;;;;5056076;28;20484;-59
2022/06/16 00:10:21;;;;;;;1.77;1.67;;;21.80;52.40;;;;;;5057287;28;20067;-59
2022/06/16 00:12:47;;;;;;;3.38;1.90;;;21.80;52.40;;;;;;5058025;28;20033;-59
2022/06/16 00:15:17;;;;;;;1.98;1.73;;;21.80;52.40;;;;;;5058193;28;20051;-57
2022/06/16 00:17:43;;;;;;;1.83;1.73;;;21.80;52.40;;;;;;5057682;28;20149;-58
2022/06/16 00:20:10;;;;;;;1.70;1.60;;;21.80;52.40;;;;;;5057710;28;20032;-59
2022/06/16 00:22:36;;;;;;;2.45;1.80;;;21.80;52.40;;;;;;5055921;28;20045;-58
2022/06/16 00:25:03;;;;;;;2.10;1.90;;;21.80;52.50;;;;;;5056402;28;20051;-58
2022/06/16 00:27:29;;;;;;;1.75;1.60;;;21.80;52.60;;;;;;5056790;28;20037;-59
2022/06/16 00:29:54;;;;;;;2.10;1.70;;;21.80;52.50;;;;;;5056590;28;20036;-60
2022/06/16 00:32:20;;;;;;;2.47;1.77;;;21.80;52.60;;;;;;5057205;28;20094;-58
2022/06/16 00:34:46;;;;;;;1.70;1.60;;;21.80;52.50;;;;;;5056705;28;20033;-61
2022/06/16 00:37:11;;;;;;;1.77;1.63;;;21.80;52.40;;;;;;5057797;28;20044;-61
2022/06/16 00:39:37;;;;;;;1.98;1.73;;;21.80;52.40;;;;;;5057949;28;20596;-58
2022/06/16 00:42:16;;;;;;;1.77;1.58;;;21.80;52.40;;;;;;5055973;28;20048;-59
2022/06/16 00:44:44;;;;;;;2.00;1.80;;;21.80;52.40;;;;;;5056166;28;20694;-59
2022/06/16 00:47:10;;;;;;;2.28;1.70;;;21.80;52.50;;;;;;5057408;28;20045;-59
2022/06/16 00:49:41;;;;;;;1.70;1.60;;;21.80;52.40;;;;;;5056117;28;20040;-60
2022/06/16 00:52:12;;;;;;;1.65;1.55;;;21.80;52.50;;;;;;5058680;28;20043;-59
2022/06/16 00:54:46;;;;;;;3.05;1.80;;;21.80;52.40;;;;;;5056986;28;20041;-58
2022/06/16 00:57:20;;;;;;;1.52;1.42;;;21.80;52.40;;;;;;5056419;28;20604;-58
2022/06/16 00:59:45;;;;;;;2.00;1.90;;;21.80;52.40;;;;;;5056611;28;20036;-60
2022/06/16 01:02:11;;;;;;;2.10;1.60;;;21.80;52.40;;;;;;5055263;28;20064;-58
2022/06/16 01:04:52;;;;;;;2.00;1.65;;;21.70;52.40;;;;;;5055575;28;20102;-59
2022/06/16 01:07:25;;;;;;;1.98;1.52;;;21.80;52.40;;;;;;5056449;28;20033;-59
2022/06/16 01:09:52;;;;;;;3.10;2.08;;;21.80;52.30;;;;;;5055800;28;20040;-58
2022/06/16 01:15:34;;;;;;;2.55;1.63;;;21.80;52.30;;;;;;5055976;28;20477;-57
2022/06/16 01:18:19;;;;;;;2.05;1.60;;;21.80;52.40;;;;;;5053068;28;20552;-59
2022/06/16 01:21:10;;;;;;;2.22;1.63;;;21.70;52.40;;;;;;5056071;28;20055;-58
2022/06/16 01:24:00;;;;;;;2.65;1.60;;;21.80;52.40;;;;;;5052664;28;20174;-59
2022/06/16 01:27:07;;;;;;;2.30;1.63;;;21.70;52.30;;;;;;5056338;28;20049;-58
2022/06/16 01:29:47;;;;;;;2.40;1.60;;;21.80;52.30;;;;;;5056501;28;20476;-59
2022/06/16 01:32:21;;;;;;;1.63;1.53;;;21.70;52.30;;;;;;5054904;28;20040;-60
2022/06/16 01:35:05;;;;;;;1.98;1.40;;;21.70;52.30;;;;;;5059127;28;20473;-60
2022/06/16 01:38:05;;;;;;;2.00;1.67;;;21.70;52.30;;;;;;5054934;28;20044;-60
2022/06/16 01:40:51;;;;;;;1.77;1.67;;;21.70;52.30;;;;;;5053489;28;20048;-60
2022/06/16 01:43:25;;;;;;;1.58;1.48;;;21.70;52.30;;;;;;5057026;28;20459;-59
2022/06/16 01:46:17;;;;;;;1.77;1.60;;;21.70;52.30;;;;;;5056822;28;20113;-59
2022/06/16 01:48:46;;;;;;;1.50;1.30;;;21.70;52.30;;;;;;5052214;28;20049;-59
2022/06/16 01:51:38;;;;;;;1.40;1.30;;;21.70;52.30;;;;;;5059956;28;20377;-59
2022/06/16 01:54:23;;;;;;;1.83;1.50;;;21.70;52.30;;;;;;5054232;28;20123;-58
2022/06/16 01:56:52;;;;;;;2.03;1.50;;;21.70;52.40;;;;;;5053480;28;20551;-58
2022/06/16 01:59:21;;;;;;;1.80;1.60;;;21.70;52.40;;;;;;5055484;28;20189;-59
2022/06/16 02:01:50;;;;;;;1.83;1.50;;;21.70;52.40;;;;;;5054931;28;20055;-58
2022/06/16 02:04:30;;;;;;;1.90;1.40;;;21.70;52.40;;;;;;5054422;28;20055;-60
2022/06/16 02:07:01;;;;;;;1.65;1.50;;;21.70;52.40;;;;;;5058004;28;20060;-62
2022/06/16 02:09:32;;;;;;;1.95;1.42;;;21.70;52.40;;;;;;5054866;28;20118;-58
2022/06/16 02:11:59;;;;;;;;;;;21.70;52.40;;;;;;5056699;28;20117;-59
2022/06/16 02:14:42;;;;;;;3.60;1.77;;;21.70;52.30;;;;;;5051825;28;20311;-60
2022/06/16 02:17:09;;;;;;;1.95;1.50;;;21.70;52.40;;;;;;5054839;28;20078;-61
2022/06/16 02:19:37;;;;;;;1.83;1.35;;;21.70;52.40;;;;;;5053891;28;20144;-58
2022/06/16 02:22:03;;;;;;;1.92;1.60;;;21.70;52.40;;;;;;5054374;28;20127;-60
2022/06/16 02:24:30;;;;;;;1.73;1.63;;;21.70;52.40;;;;;;5052899;28;20561;-58
2022/06/16 02:26:58;;;;;;;1.77;1.45;;;21.70;52.30;;;;;;5053626;28;20051;-58
2022/06/16 02:29:26;;;;;;;1.58;1.48;;;21.70;52.30;;;;;;5052866;28;20505;-60
2022/06/16 02:32:06;;;;;;;1.52;1.30;;;21.70;52.30;;;;;;5053322;28;20049;-58
2022/06/16 02:34:47;;;;;;;2.05;1.60;;;21.70;52.30;;;;;;5052066;28;20087;-59
2022/06/16 02:37:49;;;;;;;1.52;1.42;;;21.70;52.30;;;;;;5057578;28;20492;-59
2022/06/16 02:40:53;;;;;;;1.92;1.42;;;21.70;52.20;;;;;;5054722;28;20059;-60
2022/06/16 02:43:36;;;;;;;2.45;1.60;;;21.70;52.20;;;;;;5046518;28;20060;-60
2022/06/16 02:46:07;;;;;;;1.65;1.50;;;21.70;52.20;;;;;;5053570;28;20072;-59
2022/06/16 02:48:48;;;;;;;1.40;1.30;;;21.70;52.30;;;;;;5054669;28;20041;-60
2022/06/16 02:51:20;;;;;;;1.33;1.23;;;21.70;52.20;;;;;;5053415;28;20064;-59
2022/06/16 02:54:12;;;;;;;1.60;1.27;;;21.60;52.10;;;;;;5053663;28;20047;-59
2022/06/16 02:57:01;;;;;;;1.73;1.40;;;21.70;52.90;;;;;;5052319;28;20072;-62
2022/06/16 02:59:48;;;;;;;1.55;1.45;;;21.70;52.20;;;;;;5055707;28;20044;-59
2022/06/16 03:02:19;;;;;;;1.77;1.60;;;21.70;52.20;;;;;;5055645;28;20041;-59
2022/06/16 03:05:00;;;;;;;1.90;1.27;;;21.60;52.10;;;;;;5054346;28;20033;-60
2022/06/16 03:07:28;;;;;;;1.50;1.30;;;21.60;52.10;;;;;;5054815;28;20045;-61
2022/06/16 03:09:54;;;;;;;1.60;1.50;;;21.60;52.10;;;;;;5055098;28;20032;-62
2022/06/16 03:12:20;;;;;;;1.70;1.40;;;21.70;52.10;;;;;;5052991;28;20143;-58
2022/06/16 03:14:45;;;;;;;1.33;1.23;;;21.70;52.10;;;;;;5055906;28;20427;-58
2022/06/16 03:17:13;;;;;;;2.13;1.48;;;21.70;52.10;;;;;;5053362;28;20044;-59
2022/06/16 03:19:39;;;;;;;1.60;1.50;;;21.60;52.00;;;;;;5055281;28;20492;-61
2022/06/16 03:22:05;;;;;;;2.17;1.50;;;21.70;52.10;;;;;;5055279;28;20038;-60
2022/06/16 03:24:31;;;;;;;2.25;1.10;;;21.70;52.10;;;;;;5052639;28;20037;-58
2022/06/16 03:26:56;;;;;;;1.65;1.20;;;21.60;52.00;;;;;;5054037;28;20105;-60
2022/06/16 03:29:22;;;;;;;1.73;1.30;;;21.70;52.10;;;;;;5053929;28;20135;-59
2022/06/16 03:31:48;;;;;;;1.55;1.45;;;21.70;52.00;;;;;;5055147;28;20127;-59
2022/06/16 03:34:13;;;;;;;1.85;1.30;;;21.70;52.00;;;;;;5054118;28;20642;-58
2022/06/16 03:36:40;;;;;;;2.83;1.58;;;21.70;52.60;;;;;;5055714;28;20123;-59
2022/06/16 03:39:06;;;;;;;3.05;1.45;;;21.60;52.00;;;;;;5052880;28;20084;-59
2022/06/16 03:41:32;;;;;;;1.13;1.10;;;21.70;52.00;;;;;;5054261;28;20048;-59
2022/06/16 03:43:58;;;;;;;2.15;1.40;;;21.70;52.80;;;;;;5055609;28;20095;-58
2022/06/16 03:46:25;;;;;;;1.40;1.30;;;21.60;52.00;;;;;;5053759;28;20574;-58
2022/06/16 03:48:51;;;;;;;1.70;1.33;;;21.70;52.00;;;;;;5051706;28;20052;-61
2022/06/16 03:51:17;;;;;;;2.05;1.30;;;21.70;52.00;;;;;;5052465;28;20847;-58
2022/06/16 03:53:42;;;;;;;1.65;1.35;;;21.70;52.00;;;;;;5055740;28;20075;-60
2022/06/16 03:56:09;;;;;;;2.42;1.63;;;21.70;52.00;;;;;;5054284;28;20128;-59
2022/06/16 03:58:35;;;;;;;2.53;1.40;;;21.60;51.90;;;;;;5055139;28;20476;-58
2022/06/16 04:01:01;;;;;;;2.47;1.30;;;21.60;52.00;;;;;;5054038;28;20064;-59
2022/06/16 04:06:12;;;;;;;1.25;1.00;;;21.60;51.90;;;;;;5052084;28;20476;-59
2022/06/16 04:08:39;;;;;;;2.28;1.52;;;21.60;51.90;;;;;;5055648;28;20036;-60
2022/06/16 04:11:26;;;;;;;2.83;1.10;;;21.60;52.00;;;;;;5058587;28;20039;-60
2022/06/16 04:13:51;;;;;;;2.00;1.42;;;21.60;51.90;;;;;;5058417;28;20076;-58
2022/06/16 04:16:17;;;;;;;1.73;1.30;;;21.60;51.90;;;;;;5057608;28;20586;-59
2022/06/16 04:18:43;;;;;;;1.88;1.20;;;21.70;52.00;;;;;;5055518;28;20044;-59
2022/06/16 04:21:14;;;;;;;1.90;1.30;;;21.60;52.00;;;;;;5055852;28;20400;-58
2022/06/16 04:23:40;;;;;;;1.63;1.30;;;21.60;51.90;;;;;;5056886;28;20061;-59
2022/06/16 04:26:06;;;;;;;1.48;1.30;;;21.60;52.00;;;;;;5056584;28;20056;-61
2022/06/16 04:28:32;;;;;;;3.00;1.00;;;21.60;51.90;;;;;;5054721;28;20469;-61
2022/06/16 04:30:58;;;;;;;2.03;1.45;;;21.60;51.90;;;;;;5058246;28;20481;-64
2022/06/16 04:33:24;;;;;;;2.13;1.25;;;21.60;52.00;;;;;;5057467;28;20611;-63
2022/06/16 04:35:50;;;;;;;1.20;1.10;;;21.60;52.00;;;;;;5055213;28;20047;-60
2022/06/16 04:38:16;;;;;;;1.65;1.30;;;21.60;52.00;;;;;;5052816;28;20684;-63
2022/06/16 04:40:42;;;;;;;2.10;1.50;;;21.60;52.00;;;;;;5053160;28;20052;-64
2022/06/16 04:43:08;;;;;;;2.03;1.50;;;21.60;52.00;;;;;;5054872;28;20032;-63
2022/06/16 04:45:33;;;;;;;2.58;2.03;;;21.60;51.90;;;;;;5053258;28;20118;-60
2022/06/16 04:47:59;;;;;;;3.83;2.30;;;21.60;51.90;;;;;;5055329;28;20029;-59
2022/06/16 04:50:24;;;;;;;3.53;2.22;;;21.60;51.70;;;;;;5056835;28;20036;-58
2022/06/16 04:52:50;;;;;;;3.42;2.22;;;21.60;51.60;;;;;;5056453;28;20033;-62
2022/06/16 04:55:16;;;;;;;3.88;2.15;;;21.50;51.50;;;;;;5056436;28;20072;-63
2022/06/16 04:57:42;;;;;;;4.50;2.17;;;21.60;51.50;;;;;;5053957;28;20070;-61
2022/06/16 05:00:13;;;;;;;3.17;2.42;;;21.50;51.40;;;;;;5055084;28;20047;-62
2022/06/16 05:02:39;;;;;;;6.03;2.55;;;21.50;51.40;;;;;;5050783;28;20040;-61
2022/06/16 05:05:05;;;;;;;4.70;2.50;;;21.50;51.30;;;;;;5054844;28;20500;-60
2022/06/16 05:07:31;;;;;;;3.85;2.38;;;21.50;51.40;;;;;;5056470;28;20422;-60
2022/06/16 05:09:56;;;;;;;2.38;2.00;;;21.50;51.50;;;;;;5055992;28;20417;-61
2022/06/16 05:12:22;;;;;;;4.88;2.47;;;21.50;51.50;;;;;;5057677;28;20064;-61
2022/06/16 05:14:48;;;;;;;3.80;2.03;;;21.50;51.40;;;;;;5056149;28;20070;-62
2022/06/16 05:17:13;;;;;;;4.68;2.75;;;21.50;51.50;;;;;;5055653;28;20051;-62
2022/06/16 05:19:39;;;;;;;9.02;2.90;;;21.50;51.50;;;;;;5054447;28;20072;-61
2022/06/16 05:22:05;;;;;;;6.90;2.58;;;21.50;51.60;;;;;;5055391;28;20083;-61
2022/06/16 05:24:32;;;;;;;6.13;2.85;;;21.50;51.70;;;;;;5058178;28;20071;-62
2022/06/16 05:26:58;;;;;;;4.10;2.58;;;21.50;51.70;;;;;;5056338;28;20949;-59
2022/06/16 05:29:23;;;;;;;5.50;2.50;;;21.50;51.80;;;;;;5055554;28;20032;-59
2022/06/16 05:31:49;;;;;;;4.63;2.50;;;21.50;51.90;;;;;;5055463;28;20052;-61
2022/06/16 05:34:15;;;;;;;3.20;2.33;;;21.50;52.00;;;;;;5055078;28;20037;-58
2022/06/16 05:36:43;;;;;;;4.38;2.58;;;21.50;52.00;;;;;;5055800;28;20056;-60
2022/06/16 05:39:09;;;;;;;4.28;2.47;;;21.40;52.20;;;;;;5055178;28;20040;-58
2022/06/16 05:41:34;;;;;;;8.70;2.90;;;21.50;52.30;;;;;;5057420;28;20059;-59
2022/06/16 05:44:00;;;;;;;4.15;2.70;;;21.40;52.40;;;;;;5055349;28;20099;-59
2022/06/16 05:46:26;;;;;;;5.03;2.90;;;21.40;52.30;;;;;;5054580;28;20048;-60
2022/06/16 05:48:52;;;;;;;4.43;2.65;;;21.40;52.30;;;;;;5054495;28;20040;-60
2022/06/16 05:51:18;;;;;;;4.25;2.45;;;21.40;52.40;;;;;;5057351;28;20037;-60
2022/06/16 05:53:45;;;;;;;5.72;2.47;;;21.40;52.50;;;;;;5053750;28;20059;-61
2022/06/16 05:56:11;;;;;;;5.20;2.40;;;21.40;52.70;;;;;;5054541;28;20033;-58
2022/06/16 05:58:37;;;;;;;5.60;2.33;;;21.40;52.90;;;;;;5054632;28;20047;-59
2022/06/16 06:01:03;;;;;;;7.20;2.60;;;21.40;52.90;;;;;;5056393;28;20444;-59
2022/06/16 06:03:29;;;;;;;9.57;2.70;;;21.40;52.90;;;;;;5055836;28;20063;-60
2022/06/16 06:05:55;;;;;;;4.30;2.50;;;21.40;52.90;;;;;;5056006;28;20032;-60
2022/06/16 06:16:40;;;;;;;3.40;1.98;;;21.40;52.90;;;;;;5054728;28;20115;-60
2022/06/16 06:19:23;;;;;;;4.85;1.92;;;21.40;52.90;;;;;;5056914;28;20067;-61
2022/06/16 06:22:03;;;;;;;7.05;2.00;;;21.40;52.90;;;;;;5055104;28;20040;-60
2022/06/16 06:24:54;;;;;;;2.22;1.60;;;21.40;52.80;;;;;;5055441;28;20163;-60
2022/06/16 06:27:42;;;;;;;3.08;1.88;;;21.40;52.80;;;;;;5054266;28;20499;-59
2022/06/16 06:30:12;;;;;;;2.67;1.70;;;21.40;52.80;;;;;;5056348;28;20941;-61
2022/06/16 06:32:38;;;;;;;2.55;1.60;;;21.40;52.80;;;;;;5055440;28;20123;-61
2022/06/16 06:35:04;;;;;;;5.32;2.22;;;21.40;52.80;;;;;;5055085;28;20143;-61
2022/06/16 06:37:30;;;;;;;3.55;1.55;;;21.40;52.80;;;;;;5054985;28;20468;-59
2022/06/16 06:39:56;;;;;;;5.35;2.00;;;21.40;52.80;;;;;;5056665;28;20072;-59
2022/06/16 06:42:22;;;;;;;4.25;1.80;;;21.40;52.80;;;;;;5060590;28;20145;-64
2022/06/16 06:44:48;;;;;;;6.88;1.80;;;21.50;52.80;;;;;;5052786;28;20041;-61
2022/06/16 06:47:19;;;;;;;1.83;1.33;;;21.40;52.70;;;;;;5052944;28;20052;-61
2022/06/16 06:49:45;;;;;;;4.30;1.48;;;21.40;52.70;;;;;;5054272;28;20044;-60
2022/06/16 06:52:11;;;;;;;5.82;2.00;;;21.40;52.70;;;;;;5052828;28;20039;-60
2022/06/16 06:54:37;;;;;;;2.50;1.65;;;21.40;52.60;;;;;;5053794;28;20470;-59
2022/06/16 06:57:02;;;;;;;4.85;1.70;;;21.40;52.70;;;;;;5035378;28;20455;-62
2022/06/16 06:59:28;;;;;;;3.80;1.50;;;21.40;52.60;;;;;;5051829;28;20591;-60
2022/06/16 07:01:54;;;;;;;3.35;1.50;;;21.40;52.60;;;;;;5054782;28;20048;-60
2022/06/16 07:04:20;;;;;;;3.28;1.20;;;21.40;52.60;;;;;;5052885;28;20033;-60
2022/06/16 07:06:47;;;;;;;3.15;1.45;;;21.50;52.60;;;;;;5052729;28;20052;-60
2022/06/16 07:09:19;;;;;;;3.10;1.23;;;21.50;52.60;;;;;;5056218;28;20028;-59
2022/06/16 07:11:45;;;;;;;2.30;1.20;;;21.40;52.60;;;;;;5053331;28;20037;-60
2022/06/16 07:14:11;;;;;;;2.80;1.73;;;21.50;52.60;;;;;;5054233;28;20044;-60
2022/06/16 07:16:37;;;;;;;2.53;1.50;;;21.50;52.60;;;;;;5053836;28;20659;-59
2022/06/16 07:19:04;;;;;;;3.28;1.20;;;21.40;52.50;;;;;;5052699;28;20044;-60
2022/06/16 07:21:29;;;;;;;1.98;1.55;;;21.40;52.60;;;;;;5055923;28;20101;-60
2022/06/16 07:23:55;;;;;;;2.85;1.20;;;21.50;52.60;;;;;;5055929;28;20560;-59
2022/06/16 07:26:22;;;;;;;2.53;1.30;;;21.50;52.60;;;;;;5055140;28;20068;-61
2022/06/16 07:28:48;;;;;;;4.50;1.25;;;21.50;52.50;;;;;;5051989;28;20051;-59
2022/06/16 07:31:15;;;;;;;2.03;1.30;;;21.50;52.50;;;;;;5054653;28;20450;-60
2022/06/16 07:33:41;;;;;;;1.98;1.20;;;21.50;52.50;;;;;;5056461;28;20048;-60
2022/06/16 07:36:08;;;;;;;3.17;1.38;;;21.50;52.50;;;;;;5053643;28;20465;-59
2022/06/16 07:38:34;;;;;;;3.53;1.13;;;21.50;52.50;;;;;;5056086;28;20048;-59
2022/06/16 07:43:44;;;;;;;4.00;1.30;;;21.40;52.40;;;;;;5056954;28;20074;-59
2022/06/16 07:46:10;;;;;;;2.20;0.95;;;21.40;53.20;;;;;;5058525;28;20051;-61
2022/06/16 07:48:36;;;;;;;1.35;0.90;;;21.40;52.40;;;;;;5058257;28;20115;-59
2022/06/16 07:51:02;;;;;;;1.67;1.00;;;21.40;52.40;;;;;;5059713;28;20099;-61
2022/06/16 07:53:28;;;;;;;3.83;1.40;;;21.40;52.40;;;;;;5058032;28;20064;-61
2022/06/16 07:55:53;;;;;;;2.47;0.82;;;21.40;52.50;;;;;;5055796;28;20481;-62
2022/06/16 07:58:19;;;;;;;2.35;1.23;;;21.40;52.40;;;;;;5060756;28;20033;-61
2022/06/16 08:00:45;;;;;;;1.33;1.10;;;21.40;52.40;;;;;;5056880;28;20036;-62
2022/06/16 08:03:11;;;;;;;1.55;1.15;;;21.40;52.40;;;;;;5057140;28;20043;-60
2022/06/16 08:05:36;;;;;;;2.47;1.13;;;21.50;52.40;;;;;;5055991;28;20040;-62
2022/06/16 08:08:03;;;;;;;1.95;1.10;;;21.40;52.40;;;;;;5057025;28;20116;-59
2022/06/16 08:10:33;;;;;;;2.20;0.98;;;21.40;52.30;;;;;;5058541;28;20048;-60
2022/06/16 08:12:59;;;;;;;1.27;0.87;;;21.40;52.20;;;;;;5060117;28;20041;-60
2022/06/16 08:15:25;;;;;;;1.88;1.23;;;21.40;52.10;;;;;;5055794;28;20299;-60
2022/06/16 08:17:54;;;;;;;1.58;0.90;;;21.40;51.90;;;;;;5057293;28;20058;-62
2022/06/16 08:20:20;;;;;;;1.60;1.02;;;21.40;51.90;;;;;;5056253;28;20049;-60
2022/06/16 08:22:46;;;;;;;1.45;1.10;;;21.40;51.70;;;;;;5058699;28;20098;-61
2022/06/16 08:25:12;;;;;;;2.83;1.00;;;21.50;51.40;;;;;;5057105;28;20452;-60
2022/06/16 08:27:41;;;;;;;1.90;1.08;;;21.40;51.40;;;;;;5057059;28;21955;-60
2022/06/16 08:30:12;;;;;;;1.85;1.10;;;21.50;51.50;;;;;;5060181;28;20374;-59
2022/06/16 08:32:38;;;;;;;1.42;0.90;;;21.40;51.60;;;;;;5055043;28;20377;-60
2022/06/16 08:35:04;;;;;;;1.52;0.80;;;21.50;51.50;;;;;;5058830;28;20040;-60
2022/06/16 08:37:30;;;;;;;2.63;0.85;;;21.50;51.40;;;;;;5058085;28;20566;-60
2022/06/16 08:39:56;;;;;;;1.60;1.10;;;21.50;51.10;;;;;;5057950;28;20082;-60
2022/06/16 08:42:25;;;;;;;1.98;1.05;;;21.40;51.10;;;;;;5062355;28;20146;-59
2022/06/16 08:45:02;;;;;;;2.03;1.17;;;21.50;51.10;;;;;;5058636;28;20047;-61
2022/06/16 08:47:37;;;;;;;2.38;0.85;;;21.40;51.10;;;;;;5055485;28;20072;-59
2022/06/16 08:50:14;;;;;;;2.80;1.23;;;21.50;51.30;;;;;;5056993;28;20048;-60
2022/06/16 08:53:16;;;;;;;1.00;0.80;;;21.50;51.20;;;;;;5055834;28;20033;-59
2022/06/16 08:56:04;;;;;;;1.33;0.73;;;21.50;51.20;;;;;;5056465;28;20063;-59
2022/06/16 08:58:39;;;;;;;1.75;0.95;;;21.50;51.30;;;;;;5055183;28;20085;-59
2022/06/16 09:01:21;;;;;;;1.20;1.10;;;21.50;51.10;;;;;;5056643;28;20519;-60
2022/06/16 09:03:52;;;;;;;30.38;15.38;;;21.50;51.30;;;;;;5057335;28;20115;-59
2022/06/16 09:06:30;;;;;;;45.83;27.40;;;21.40;51.30;;;;;;5058658;28;20485;-59
2022/06/16 09:09:07;;;;;;;34.83;20.83;;;21.50;51.50;;;;;;5056486;28;20036;-59
2022/06/16 09:11:33;;;;;;;30.58;15.98;;;21.50;51.70;;;;;;5055092;28;20032;-60
2022/06/16 09:14:03;;;;;;;33.22;15.70;;;21.50;52.00;;;;;;5056911;28;20446;-59
2022/06/16 09:17:03;;;;;;;26.73;12.90;;;21.50;52.10;;;;;;5056344;28;20519;-60
2022/06/16 09:19:50;;;;;;;23.70;11.32;;;21.50;52.20;;;;;;5055316;28;20051;-60
2022/06/16 09:22:55;;;;;;;32.20;11.63;;;21.50;52.30;;;;;;5054631;28;20072;-60
2022/06/16 09:25:52;;;;;;;27.33;11.23;;;21.50;52.40;;;;;;5055275;28;20051;-60
2022/06/16 09:28:35;;;;;;;21.98;10.43;;;21.50;52.40;;;;;;5054372;28;20051;-62
2022/06/16 09:31:04;;;;;;;19.73;9.25;;;21.50;52.50;;;;;;5055615;28;20128;-60
2022/06/16 09:33:35;;;;;;;20.42;8.25;;;21.50;52.30;;;;;;5055616;28;20116;-60
2022/06/16 09:36:00;;;;;;;17.40;6.63;;;21.50;52.20;;;;;;5054451;28;20080;-61
2022/06/16 09:38:48;;;;;;;15.38;6.70;;;21.50;52.00;;;;;;5057599;28;20047;-62
2022/06/16 09:44:45;;;;;;;19.42;6.50;;;21.50;52.20;;;;;;5048442;28;20483;-60
2022/06/16 09:47:16;;;;;;;17.75;7.40;;;21.50;52.40;;;;;;5055679;28;20127;-59
2022/06/16 09:49:51;;;;;;;20.55;7.40;;;21.50;52.40;;;;;;5052986;28;20062;-62
2022/06/16 09:52:27;;;;;;;15.38;6.72;;;21.50;52.50;;;;;;5053093;28;20052;-60
2022/06/16 09:55:02;;;;;;;15.00;6.20;;;21.50;52.50;;;;;;5053472;28;20033;-60
2022/06/16 09:57:35;;;;;;;14.60;6.70;;;21.50;52.60;;;;;;5056330;28;20033;-61
2022/06/16 10:00:14;;;;;;;21.25;7.75;;;21.50;52.60;;;;;;5053263;28;20044;-61
2022/06/16 10:02:53;;;;;;;9.05;4.93;;;21.50;52.60;;;;;;5052884;28;20036;-62
2022/06/16 10:05:37;;;;;;;14.20;5.50;;;21.50;52.50;;;;;;5052575;28;20127;-60
2022/06/16 10:08:56;;;;;;;13.77;4.93;;;21.50;52.40;;;;;;5055422;28;20113;-60
2022/06/16 10:11:37;;;;;;;10.27;4.88;;;21.50;52.40;;;;;;5021331;28;20468;-60
2022/06/16 10:14:17;;;;;;;11.50;4.55;;;21.50;52.40;;;;;;5054358;28;20075;-60
2022/06/16 10:16:53;;;;;;;8.37;4.43;;;21.50;52.50;;;;;;5054614;28;20040;-61
2022/06/16 10:19:21;;;;;;;11.80;4.47;;;21.50;52.60;;;;;;5055036;28;20068;-59
2022/06/16 10:21:47;;;;;;;9.40;4.15;;;21.50;52.60;;;;;;5055228;28;20037;-61
2022/06/16 10:24:16;;;;;;;11.02;4.15;;;21.50;52.70;;;;;;5054951;28;20049;-58
2022/06/16 10:26:42;;;;;;;12.85;4.70;;;21.50;52.70;;;;;;5053462;28;20408;-61
2022/06/16 10:29:31;;;;;;;7.93;3.80;;;21.50;52.70;;;;;;5054706;28;20171;-60
2022/06/16 10:31:59;;;;;;;7.85;3.75;;;21.50;52.60;;;;;;5055774;28;20934;-61
2022/06/16 10:34:39;;;;;;;9.65;3.60;;;21.50;52.60;;;;;;5055905;28;20052;-63
2022/06/16 10:37:08;;;;;;;6.53;2.80;;;21.50;52.60;;;;;;5057075;28;20049;-60
2022/06/16 10:39:46;;;;;;;6.03;3.00;;;21.60;52.70;;;;;;5053716;28;20726;-61
2022/06/16 10:42:31;;;;;;;6.45;2.92;;;21.60;52.70;;;;;;5056603;28;20048;-61
2022/06/16 10:45:06;;;;;;;4.35;2.90;;;21.50;52.70;;;;;;5053814;28;20040;-63
2022/06/16 10:47:35;;;;;;;6.60;2.72;;;21.60;52.80;;;;;;5058141;28;20045;-62
2022/06/16 10:50:06;;;;;;;8.18;3.30;;;21.50;52.70;;;;;;5055024;28;20028;-62
2022/06/16 10:52:39;;;;;;;5.72;2.92;;;21.60;53.00;;;;;;5056643;28;20379;-63
2022/06/16 10:55:11;;;;;;;6.38;2.70;;;21.60;53.50;;;;;;5048897;28;20858;-62
2022/06/16 10:58:01;;;;;;;12.88;2.90;;;21.60;54.00;;;;;;5052866;28;20040;-61
2022/06/16 11:00:32;;;;;;;4.82;2.38;;;21.60;54.10;;;;;;5053722;28;20048;-61
2022/06/16 11:03:01;;;;;;;4.75;2.70;;;21.60;54.00;;;;;;5053388;28;20162;-62
2022/06/16 11:05:30;;;;;;;4.70;2.17;;;21.60;53.90;;;;;;5056244;28;20476;-60
2022/06/16 11:08:12;;;;;;;5.57;2.67;;;21.60;54.00;;;;;;5054185;28;20052;-60
2022/06/16 11:10:41;;;;;;;7.05;2.88;;;21.60;54.00;;;;;;5048856;28;20056;-60
2022/06/16 11:13:16;;;;;;;3.22;2.20;;;21.60;54.00;;;;;;5055588;28;20040;-61
2022/06/16 11:15:49;;;;;;;6.60;2.92;;;21.60;53.90;;;;;;5055239;28;20039;-62
2022/06/16 11:18:19;;;;;;;10.02;4.07;;;21.60;53.80;;;;;;5056954;28;20083;-61
2022/06/16 11:20:48;;;;;;;10.55;4.28;;;21.60;53.80;;;;;;5057804;28;20063;-62
2022/06/16 11:23:34;;;;;;;9.50;3.38;;;21.60;53.80;;;;;;5059132;28;20818;-62
2022/06/16 11:26:09;;;;;;;8.15;3.60;;;21.60;53.60;;;;;;5053985;28;20051;-62
2022/06/16 11:28:55;;;;;;;8.65;3.42;;;21.60;53.60;;;;;;5059254;28;20041;-62
2022/06/16 11:31:25;;;;;;;6.00;3.03;;;21.60;53.60;;;;;;5057560;28;20032;-62
2022/06/16 11:34:14;;;;;;;6.57;2.92;;;21.60;53.60;;;;;;5059268;28;20147;-62
2022/06/16 11:37:00;;;;;;;8.57;3.42;;;21.60;53.30;;;;;;5056511;28;20045;-62
2022/06/16 11:39:44;;;;;;;5.63;2.92;;;21.60;53.20;;;;;;5057342;28;20041;-62
2022/06/16 11:42:19;;;;;;;6.32;2.95;;;21.60;53.20;;;;;;5052830;28;20391;-61
2022/06/16 11:45:04;;;;;;;6.25;3.20;;;21.60;53.20;;;;;;5057970;28;20452;-61
2022/06/16 11:47:44;;;;;;;7.35;2.80;;;21.60;53.20;;;;;;5057629;28;20040;-62
2022/06/16 11:50:31;;;;;;;7.38;3.13;;;21.60;53.20;;;;;;5059508;28;20091;-60
2022/06/16 11:53:17;;;;;;;5.68;2.92;;;21.60;53.10;;;;;;5056573;28;20044;-61
2022/06/16 11:55:54;;;;;;;5.10;2.80;;;21.60;53.10;;;;;;5056130;28;20062;-61
2022/06/16 11:58:31;;;;;;;6.90;3.33;;;21.60;53.20;;;;;;5056527;28;20130;-62
2022/06/16 12:01:16;;;;;;;7.03;3.40;;;21.60;53.50;;;;;;5057638;28;20043;-62
2022/06/16 12:03:45;;;;;;;6.90;3.28;;;21.70;54.30;;;;;;5055128;28;20047;-61
2022/06/16 12:06:33;;;;;;;5.50;3.03;;;21.70;54.30;;;;;;5058292;28;20032;-62
2022/06/16 12:09:01;;;;;;;5.40;3.05;;;21.70;54.60;;;;;;5059590;28;20442;-60
2022/06/16 12:11:53;;;;;;;4.65;2.47;;;21.70;54.60;;;;;;5052549;28;20044;-60
2022/06/16 12:14:53;;;;;;;4.80;3.00;;;21.70;54.70;;;;;;5055108;28;20041;-60
2022/06/16 12:17:44;;;;;;;5.95;2.90;;;21.70;54.70;;;;;;5054525;28;20356;-58
2022/06/16 12:20:17;;;;;;;;;;;21.70;55.00;;;;;;5058304;28;20040;-59
2022/06/16 12:22:50;;;;;;;5.60;2.50;;;21.70;55.30;;;;;;5058749;28;19921;-59
2022/06/16 12:25:32;;;;;;;4.75;3.00;;;21.70;54.90;;;;;;5058627;28;20044;-60
2022/06/16 12:28:21;;;;;;;4.18;2.65;;;21.70;55.00;;;;;;5054060;28;20117;-60
2022/06/16 12:31:20;;;;;;;4.43;2.70;;;21.70;55.00;;;;;;5056628;28;20501;-60
2022/06/16 12:33:54;;;;;;;5.45;2.80;;;21.70;54.90;;;;;;5057005;28;20048;-59
2022/06/16 12:36:27;;;;;;;3.83;2.70;;;21.70;54.80;;;;;;5054904;28;20044;-61
2022/06/16 12:39:13;;;;;;;4.18;2.60;;;21.70;54.40;;;;;;5055216;28;20043;-60
2022/06/16 12:41:48;;;;;;;3.85;2.50;;;21.80;54.50;;;;;;5051416;28;20093;-61
2022/06/16 12:44:23;;;;;;;3.38;2.63;;;21.80;54.10;;;;;;5057201;28;20077;-60
2022/06/16 12:46:57;;;;;;;4.38;2.60;;;21.80;53.80;;;;;;5055615;28;20059;-60
2022/06/16 12:49:33;;;;;;;7.03;2.80;;;21.80;54.00;;;;;;5048600;28;20029;-60
2022/06/16 12:52:06;;;;;;;3.05;2.42;;;21.80;54.70;;;;;;5056681;28;20656;-60
2022/06/16 12:54:39;;;;;;;5.55;2.60;;;21.80;55.00;;;;;;5053426;28;20033;-60
2022/06/16 12:57:11;;;;;;;4.80;2.80;;;21.80;55.20;;;;;;5052037;28;20037;-60
2022/06/16 12:59:46;;;;;;;4.70;2.42;;;21.80;55.40;;;;;;5052118;28;20041;-60
2022/06/16 13:02:18;;;;;;;3.22;2.25;;;21.90;55.60;;;;;;5056520;28;20094;-61
2022/06/16 13:04:45;;;;;;;4.18;2.72;;;21.80;55.40;;;;;;5055177;28;20067;-60
2022/06/16 13:07:16;;;;;;;6.95;2.65;;;21.80;55.00;;;;;;5056648;28;20412;-60
2022/06/16 13:09:42;;;;;;;7.10;2.40;;;21.90;55.20;;;;;;5057135;28;20590;-60
2022/06/16 13:12:19;;;;;;;4.63;2.35;;;21.90;55.20;;;;;;5051281;28;20033;-60
2022/06/16 13:15:00;;;;;;;6.13;2.78;;;21.90;55.20;;;;;;5055033;28;20047;-60
2022/06/16 13:17:30;;;;;;;4.55;2.65;;;21.90;55.30;;;;;;5056362;28;20041;-60
2022/06/16 13:20:00;;;;;;;6.20;2.50;;;21.90;55.20;;;;;;5055356;28;20040;-60
2022/06/16 13:22:48;;;;;;;3.22;2.20;;;21.90;55.30;;;;;;5055811;28;20484;-60
2022/06/16 13:25:35;;;;;;;4.85;2.60;;;21.90;55.50;;;;;;5059341;28;20048;-60
2022/06/16 13:28:05;;;;;;;3.85;2.58;;;22.00;55.20;;;;;;5052720;28;20029;-60
2022/06/16 13:30:30;;;;;;;3.33;2.25;;;21.90;54.90;;;;;;5057743;28;20037;-60
2022/06/16 13:33:19;;;;;;;2.53;2.20;;;21.90;55.00;;;;;;5057348;28;20091;-60